UAL877 VHHH-KSFO
Flight info
| Callsign | UAL877 |
|---|---|
| Flight time | N/A |
| Altitude | 33000 |
| Route | DALOL V631 ENVAR M750 MUKEP Y891 OVSUN/N0485F340 Y893 IGMIS/N0486F350 Y57 POROT Y809 AVBET OTR9 EMRON DCT 41N160E 43N170E 44N180E 44N170W/N0470F370 43N160W 42N150W 42N140W 41N130W DCT UNVER DCT AMAKR BDEGA4 |
| Aircraft | B77W/H-SDE1E2E3FGHIJ2J3J4J5M1RWXY/LB1D1 |
Departure
| Time | N/A |
|---|---|
| Airport | Hong Kong International Airport (VHHH) |
Arrival
| Time | 2026-04-30 18:46 |
|---|---|
| Airport | San Francisco International Airport (KSFO) |
| Time | Latitude | Longitude | Altitude | Speed | Heading |
|---|---|---|---|---|---|
| 2026-04-30 18:11 | 39.69244 | -125.43906 | 33131 ft | 512 kts | 116° |
| 2026-04-30 18:11 | 39.64353 | -125.31665 | 32030 ft | 514 kts | 116° |
| 2026-04-30 18:12 | 39.59413 | -125.19350 | 30905 ft | 513 kts | 116° |
| 2026-04-30 18:13 | 39.56121 | -125.11172 | 30178 ft | 513 kts | 116° |
| 2026-04-30 18:14 | 39.47879 | -124.90791 | 30088 ft | 512 kts | 116° |
| 2026-04-30 18:15 | 39.37906 | -124.66309 | 30075 ft | 515 kts | 116° |
| 2026-04-30 18:16 | 39.31216 | -124.49995 | 30070 ft | 514 kts | 116° |
| 2026-04-30 18:17 | 39.27880 | -124.41894 | 30064 ft | 514 kts | 116° |
| 2026-04-30 18:18 | 39.22852 | -124.29723 | 30059 ft | 514 kts | 117° |
| 2026-04-30 18:18 | 39.19471 | -124.21564 | 30052 ft | 516 kts | 117° |
| 2026-04-30 18:18 | 39.17780 | -124.17493 | 29944 ft | 518 kts | 117° |
| 2026-04-30 18:19 | 39.16088 | -124.13424 | 29411 ft | 517 kts | 117° |
| 2026-04-30 18:19 | 39.14389 | -124.09345 | 28833 ft | 512 kts | 117° |
| 2026-04-30 18:19 | 39.12711 | -124.05320 | 28315 ft | 506 kts | 117° |
| 2026-04-30 18:19 | 39.11059 | -124.01365 | 27803 ft | 499 kts | 117° |
| 2026-04-30 18:20 | 39.09446 | -123.97504 | 27297 ft | 493 kts | 117° |
| 2026-04-30 18:20 | 39.07827 | -123.93638 | 26784 ft | 488 kts | 117° |
| 2026-04-30 18:20 | 39.06231 | -123.89829 | 26280 ft | 483 kts | 117° |
| 2026-04-30 18:20 | 39.04637 | -123.86031 | 25771 ft | 480 kts | 117° |
| 2026-04-30 18:21 | 39.03072 | -123.82304 | 25274 ft | 476 kts | 117° |
| 2026-04-30 18:21 | 39.01486 | -123.78548 | 24761 ft | 473 kts | 118° |
| 2026-04-30 18:21 | 38.99660 | -123.75079 | 24270 ft | 470 kts | 128° |
| 2026-04-30 18:21 | 38.97481 | -123.71994 | 24052 ft | 466 kts | 133° |
| 2026-04-30 18:22 | 38.95208 | -123.69002 | 24036 ft | 468 kts | 134° |
| 2026-04-30 18:22 | 38.90636 | -123.63061 | 24037 ft | 469 kts | 134° |
| 2026-04-30 18:22 | 38.88345 | -123.60103 | 24033 ft | 469 kts | 134° |
| 2026-04-30 18:23 | 38.86034 | -123.57129 | 24038 ft | 469 kts | 134° |
| 2026-04-30 18:23 | 38.83730 | -123.54171 | 24032 ft | 469 kts | 134° |
| 2026-04-30 18:23 | 38.81416 | -123.51205 | 24030 ft | 469 kts | 134° |
| 2026-04-30 18:23 | 38.79118 | -123.48268 | 24024 ft | 469 kts | 134° |
| 2026-04-30 18:24 | 38.74496 | -123.42371 | 24026 ft | 469 kts | 134° |
| 2026-04-30 18:24 | 38.72183 | -123.39426 | 24027 ft | 469 kts | 134° |
| 2026-04-30 18:24 | 38.69900 | -123.36523 | 24020 ft | 469 kts | 134° |
| 2026-04-30 18:25 | 38.67562 | -123.33553 | 24021 ft | 469 kts | 135° |
| 2026-04-30 18:25 | 38.62954 | -123.27707 | 23923 ft | 471 kts | 135° |
| 2026-04-30 18:25 | 38.60636 | -123.24773 | 23535 ft | 468 kts | 135° |
| 2026-04-30 18:26 | 38.56031 | -123.18949 | 22719 ft | 460 kts | 135° |
| 2026-04-30 18:26 | 38.53794 | -123.16125 | 22330 ft | 457 kts | 135° |
| 2026-04-30 18:26 | 38.51543 | -123.13286 | 21932 ft | 453 kts | 135° |
| 2026-04-30 18:27 | 38.47086 | -123.07661 | 21109 ft | 447 kts | 134° |
| 2026-04-30 18:27 | 38.44890 | -123.04890 | 20745 ft | 443 kts | 134° |
| 2026-04-30 18:28 | 38.40535 | -122.99408 | 19965 ft | 438 kts | 134° |
| 2026-04-30 18:28 | 38.38381 | -122.96699 | 19599 ft | 436 kts | 134° |
| 2026-04-30 18:28 | 38.34098 | -122.91320 | 19030 ft | 430 kts | 134° |
| 2026-04-30 18:29 | 38.31957 | -122.88635 | 19020 ft | 432 kts | 134° |
| 2026-04-30 18:29 | 38.25535 | -122.80629 | 19016 ft | 432 kts | 137° |
| 2026-04-30 18:30 | 38.20458 | -122.76586 | 19017 ft | 433 kts | 158° |
| 2026-04-30 18:30 | 38.14676 | -122.74541 | 18975 ft | 434 kts | 167° |
| 2026-04-30 18:31 | 38.11710 | -122.73663 | 18580 ft | 434 kts | 167° |
| 2026-04-30 18:31 | 38.05891 | -122.71955 | 17706 ft | 426 kts | 167° |
| 2026-04-30 18:32 | 38.00148 | -122.70282 | 16861 ft | 420 kts | 167° |
| 2026-04-30 18:32 | 37.97330 | -122.69464 | 16450 ft | 417 kts | 167° |
| 2026-04-30 18:32 | 37.91738 | -122.67651 | 15610 ft | 410 kts | 158° |
| 2026-04-30 18:33 | 37.89207 | -122.66097 | 15149 ft | 406 kts | 147° |
| 2026-04-30 18:33 | 37.84801 | -122.61800 | 14265 ft | 398 kts | 138° |
| 2026-04-30 18:33 | 37.82666 | -122.59558 | 14061 ft | 393 kts | 138° |
| 2026-04-30 18:34 | 37.80551 | -122.57331 | 14034 ft | 395 kts | 138° |
| 2026-04-30 18:34 | 37.76332 | -122.52882 | 14033 ft | 396 kts | 138° |
| 2026-04-30 18:34 | 37.74231 | -122.50665 | 14034 ft | 396 kts | 138° |
| 2026-04-30 18:35 | 37.72099 | -122.48412 | 14037 ft | 396 kts | 137° |
| 2026-04-30 18:35 | 37.70017 | -122.46198 | 14035 ft | 396 kts | 137° |
| 2026-04-30 18:35 | 37.67892 | -122.43938 | 13984 ft | 397 kts | 137° |
| 2026-04-30 18:36 | 37.63718 | -122.39505 | 13252 ft | 388 kts | 137° |
| 2026-04-30 18:36 | 37.61655 | -122.37317 | 12874 ft | 381 kts | 137° |
| 2026-04-30 18:36 | 37.57248 | -122.33812 | 12110 ft | 370 kts | 151° |
| 2026-04-30 18:37 | 37.54980 | -122.32334 | 11725 ft | 364 kts | 151° |
| 2026-04-30 18:37 | 37.52766 | -122.30897 | 11342 ft | 359 kts | 151° |
| 2026-04-30 18:37 | 37.50570 | -122.29474 | 11064 ft | 350 kts | 151° |
| 2026-04-30 18:37 | 37.48437 | -122.28094 | 11030 ft | 334 kts | 151° |
| 2026-04-30 18:38 | 37.46430 | -122.26797 | 11024 ft | 318 kts | 151° |
| 2026-04-30 18:38 | 37.44500 | -122.25549 | 11022 ft | 302 kts | 151° |
| 2026-04-30 18:38 | 37.42669 | -122.24367 | 11007 ft | 293 kts | 151° |
| 2026-04-30 18:38 | 37.40888 | -122.23049 | 10569 ft | 297 kts | 137° |
| 2026-04-30 18:39 | 37.39637 | -122.21036 | 10039 ft | 296 kts | 112° |
| 2026-04-30 18:39 | 37.39180 | -122.18556 | 9503 ft | 288 kts | 88° |
| 2026-04-30 18:39 | 37.39589 | -122.16209 | 8976 ft | 270 kts | 62° |
| 2026-04-30 18:39 | 37.40741 | -122.14460 | 8464 ft | 257 kts | 36° |
| 2026-04-30 18:40 | 37.42337 | -122.13647 | 7933 ft | 248 kts | 8° |
| 2026-04-30 18:40 | 37.44013 | -122.13869 | 7418 ft | 241 kts | 347° |
| 2026-04-30 18:40 | 37.45627 | -122.14429 | 6902 ft | 236 kts | 346° |
| 2026-04-30 18:40 | 37.47174 | -122.14983 | 6391 ft | 231 kts | 346° |
| 2026-04-30 18:41 | 37.48711 | -122.15534 | 5868 ft | 227 kts | 345° |
| 2026-04-30 18:41 | 37.50209 | -122.16072 | 5351 ft | 225 kts | 345° |
| 2026-04-30 18:41 | 37.51711 | -122.16611 | 4824 ft | 222 kts | 345° |
| 2026-04-30 18:41 | 37.53135 | -122.17309 | 4286 ft | 221 kts | 326° |
| 2026-04-30 18:42 | 37.54153 | -122.18735 | 3762 ft | 218 kts | 305° |
| 2026-04-30 18:42 | 37.55547 | -122.21907 | 2983 ft | 191 kts | 299° |
| 2026-04-30 18:42 | 37.56142 | -122.23325 | 2936 ft | 180 kts | 299° |
| 2026-04-30 18:45 | 37.61121 | -122.35175 | 184 ft | 140 kts | 298° |
| 2026-04-30 18:45 | 37.61570 | -122.36237 | 32 ft | 133 kts | 298° |
| 2026-04-30 18:45 | 37.61978 | -122.37204 | 22 ft | 106 kts | 297° |
| 2026-04-30 18:46 | 37.62161 | -122.37632 | 31 ft | 9 kts | 296° |